Time;durP1;ratioP1;P1;durP2;ratioP2;P2;SDS_P1;SDS_P2;PMS_P1;PMS_P2;Temp;Humidity;BMP_temperature;BMP_pressure;BME280_temperature;BME280_humidity;BME280_pressure;Samples;Min_cycle;Max_cycle;Signal;HPM_P1;HPM_P2
2022/11/12 00:01:14;;;;;;;10.27;9.37;;;;;;;6.75;100.00;101946.28;5062503;28;20822;-74
2022/11/12 00:03:40;;;;;;;11.20;10.27;;;;;;;6.75;100.00;101955.69;5078589;28;20552;-75
2022/11/12 00:06:05;;;;;;;10.00;9.20;;;;;;;6.75;100.00;101953.13;5068875;28;20193;-73
2022/11/12 00:08:31;;;;;;;9.70;8.90;;;;;;;6.76;100.00;101960.00;5086789;28;20189;-78
2022/11/12 00:10:59;;;;;;;9.63;8.83;;;;;;;6.77;100.00;101956.63;5087086;28;20511;-77
2022/11/12 00:13:24;;;;;;;10.07;9.27;;;;;;;6.78;100.00;101953.22;5083055;28;20223;-78
2022/11/12 00:15:50;;;;;;;9.53;8.73;;;;;;;6.78;100.00;101951.53;5081600;28;20179;-76
2022/11/12 00:18:15;;;;;;;9.10;8.40;;;;;;;6.81;100.00;101958.47;5077052;28;20191;-75
2022/11/12 00:20:41;;;;;;;10.30;9.50;;;;;;;6.82;100.00;101949.94;5084699;28;20201;-75
2022/11/12 00:23:06;;;;;;;9.30;8.50;;;;;;;6.84;100.00;101953.44;5080209;28;20190;-74
2022/11/12 00:25:31;;;;;;;9.33;8.53;;;;;;;6.85;100.00;101939.75;5068177;28;20246;-74
2022/11/12 00:28:05;;;;;;;9.73;8.87;;;;;;;6.86;100.00;101944.06;5067583;28;20204;-76
2022/11/12 00:30:31;;;;;;;9.33;8.53;;;;;;;6.84;100.00;101938.88;5072114;28;20204;-75
2022/11/12 00:33:00;;;;;;;10.07;9.20;;;;;;;6.84;100.00;101938.00;5075878;28;20256;-74
2022/11/12 00:35:25;;;;;;;9.30;8.60;;;;;;;6.83;100.00;101934.53;5086281;28;20546;-76
2022/11/12 00:37:55;;;;;;;9.53;8.73;;;;;;;6.82;100.00;101935.34;5067325;28;20182;-74
2022/11/12 00:40:20;;;;;;;9.57;8.77;;;;;;;6.82;100.00;101934.50;5072980;28;20239;-75
2022/11/12 00:42:46;;;;;;;8.97;8.27;;;;;;;6.82;100.00;101939.66;5059958;28;20182;-75
2022/11/12 00:45:14;;;;;;;8.77;8.07;;;;;;;6.82;100.00;101937.06;5072831;28;20191;-75
2022/11/12 00:47:39;;;;;;;8.80;8.10;;;;;;;6.82;100.00;101934.50;5070170;28;20213;-77
2022/11/12 00:50:05;;;;;;;8.70;8.00;;;;;;;6.82;100.00;101932.78;5069899;28;20192;-75
2022/11/12 00:52:31;;;;;;;8.30;7.60;;;;;;;6.82;100.00;101935.34;5059894;28;20210;-75
2022/11/12 00:54:56;;;;;;;8.07;7.37;;;;;;;6.83;100.00;101941.41;5065047;28;20911;-75
2022/11/12 00:57:21;;;;;;;8.70;7.90;;;;;;;6.84;100.00;101938.88;5058118;28;20184;-75
2022/11/12 00:59:46;;;;;;;9.00;8.20;;;;;;;6.83;100.00;101929.38;5054823;28;20638;-74
2022/11/12 01:02:12;;;;;;;8.47;7.77;;;;;;;6.84;100.00;101930.28;5065872;28;20216;-80
2022/11/12 01:04:37;;;;;;;8.03;7.33;;;;;;;6.83;100.00;101931.09;5069521;28;20200;-74
2022/11/12 01:07:02;;;;;;;9.40;8.57;;;;;;;6.80;100.00;101924.16;5068992;28;20259;-75
2022/11/12 01:09:28;;;;;;;8.90;8.10;;;;;;;6.76;100.00;101930.03;5067623;28;20185;-74
2022/11/12 01:11:53;;;;;;;8.37;7.67;;;;;;;6.74;100.00;101930.78;5068654;28;20198;-75
2022/11/12 01:14:19;;;;;;;9.73;8.93;;;;;;;6.70;100.00;101920.41;5066975;28;20192;-76
2022/11/12 01:16:44;;;;;;;9.33;8.53;;;;;;;6.67;100.00;101932.28;5060840;28;20227;-74
2022/11/12 01:19:12;;;;;;;8.50;7.80;;;;;;;6.66;100.00;101933.09;5076055;28;20173;-75
2022/11/12 01:21:40;;;;;;;8.33;7.63;;;;;;;6.65;100.00;101934.81;5077858;28;20208;-75
2022/11/12 01:24:07;;;;;;;8.33;7.63;;;;;;;6.67;100.00;101933.16;5059481;28;20190;-74
2022/11/12 01:26:32;;;;;;;7.57;6.97;;;;;;;6.70;100.00;101945.25;5058066;28;20190;-76
2022/11/12 01:28:58;;;;;;;8.37;7.67;;;;;;;6.70;100.00;101938.41;5068068;28;20218;-74
2022/11/12 01:31:27;;;;;;;8.20;7.50;;;;;;;6.71;100.00;101939.28;5060942;28;20200;-77
2022/11/12 01:33:54;;;;;;;7.90;7.27;;;;;;;6.70;100.00;101933.28;5078410;28;20192;-75
2022/11/12 01:36:21;;;;;;;7.93;7.30;;;;;;;6.72;100.00;101933.31;5075601;28;20217;-75
2022/11/12 01:38:47;;;;;;;8.13;7.43;;;;;;;6.73;100.00;101924.78;5064202;28;20664;-75
2022/11/12 01:41:16;;;;;;;7.33;6.73;;;;;;;6.74;100.00;101923.94;5062759;28;20206;-75
2022/11/12 01:43:42;;;;;;;7.47;6.87;;;;;;;6.75;100.00;101925.69;5068268;28;20177;-77
2022/11/12 01:46:25;;;;;;;7.10;6.50;;;;;;;6.75;100.00;101922.25;5064084;28;20207;-75
2022/11/12 01:48:59;;;;;;;7.40;6.80;;;;;;;6.74;100.00;101916.22;5063727;28;20248;-76
2022/11/12 01:51:39;;;;;;;7.47;6.87;;;;;;;6.75;100.00;101919.66;5063020;28;20214;-76
2022/11/12 01:54:08;;;;;;;7.07;6.47;;;;;;;6.75;100.00;101915.41;5060668;28;20781;-74
2022/11/12 01:56:34;;;;;;;7.27;6.67;;;;;;;6.75;100.00;101906.81;5066835;28;20203;-75
2022/11/12 01:59:04;;;;;;;7.43;6.83;;;;;;;6.77;100.00;101913.75;5075785;28;20719;-75
2022/11/12 02:01:29;;;;;;;7.27;6.67;;;;;;;6.76;100.00;101906.88;5066403;28;20230;-75
2022/11/12 02:03:55;;;;;;;8.37;7.57;;;;;;;6.78;100.00;101906.91;5063904;28;20551;-77
2022/11/12 02:06:22;;;;;;;7.40;6.80;;;;;;;6.78;100.00;101900.09;5072177;28;20220;-74
2022/11/12 02:08:48;;;;;;;7.77;7.17;;;;;;;6.78;100.00;101897.50;5057112;28;20198;-75
2022/11/12 02:11:23;;;;;;;7.90;7.20;;;;;;;6.80;100.00;101902.69;5061049;28;20201;-76
2022/11/12 02:13:56;;;;;;;7.00;6.50;;;;;;;6.79;100.00;101896.69;5060269;28;20652;-74
2022/11/12 02:16:28;;;;;;;7.40;6.80;;;;;;;6.80;100.00;101898.44;5057713;28;20245;-78
2022/11/12 02:18:53;;;;;;;6.37;5.87;;;;;;;6.82;100.00;101904.47;5074082;28;20185;-75
2022/11/12 02:21:20;;;;;;;7.53;6.93;;;;;;;6.84;100.00;101899.41;5070508;28;20219;-77
2022/11/12 02:23:45;;;;;;;7.20;6.60;;;;;;;6.84;100.00;101905.41;5064359;28;20178;-77
2022/11/12 02:26:11;;;;;;;7.57;6.97;;;;;;;6.85;100.00;101898.56;5071834;28;20179;-75
2022/11/12 02:28:36;;;;;;;7.10;6.50;;;;;;;6.86;100.00;101897.75;5081210;28;20739;-73
2022/11/12 02:31:02;;;;;;;7.33;6.73;;;;;;;6.86;100.00;101895.19;5065204;28;20212;-78
2022/11/12 02:33:27;;;;;;;8.10;7.40;;;;;;;6.88;100.00;101893.53;5078623;28;20214;-75
2022/11/12 02:35:52;;;;;;;7.37;6.77;;;;;;;6.89;100.00;101896.97;5078490;28;20208;-78
2022/11/12 02:38:18;;;;;;;7.70;7.10;;;;;;;6.89;100.00;101892.69;5094727;28;20183;-78
2022/11/12 02:40:43;;;;;;;7.23;6.63;;;;;;;6.88;100.00;101890.97;5085974;28;20205;-74
2022/11/12 02:43:08;;;;;;;7.77;7.07;;;;;;;6.87;100.00;101891.78;5072986;28;20323;-76
2022/11/12 02:45:34;;;;;;;7.43;6.83;;;;;;;6.80;100.00;101885.56;5073431;28;20205;-74
2022/11/12 02:47:59;;;;;;;6.77;6.20;;;;;;;6.77;100.00;101889.72;5072572;28;20568;-74
2022/11/12 02:50:24;;;;;;;7.70;7.10;;;;;;;6.74;100.00;101898.22;5064297;28;20177;-75
2022/11/12 02:52:50;;;;;;;7.47;6.77;;;;;;;6.73;100.00;101899.03;5077862;28;20684;-73
2022/11/12 02:55:15;;;;;;;7.17;6.47;;;;;;;6.75;100.00;101894.81;5066902;28;20253;-75
2022/11/12 02:57:41;;;;;;;7.23;6.63;;;;;;;6.79;100.00;101890.66;5080077;28;20261;-75
2022/11/12 03:00:09;;;;;;;6.30;5.80;;;;;;;6.81;100.00;101889.00;5073888;28;20199;-74
2022/11/12 03:02:41;;;;;;;7.10;6.43;;;;;;;6.80;100.00;101888.16;5056730;28;20193;-74
2022/11/12 03:05:08;;;;;;;6.50;5.90;;;;;;;6.82;100.00;101885.59;5067985;28;20326;-74
2022/11/12 03:07:33;;;;;;;6.57;5.97;;;;;;;6.84;100.00;101887.41;5066650;28;20324;-75
2022/11/12 03:09:59;;;;;;;7.10;6.50;;;;;;;6.86;100.00;101887.47;5067567;28;20684;-75
2022/11/12 03:12:24;;;;;;;7.27;6.57;;;;;;;6.86;100.00;101888.31;5061962;28;20219;-75
2022/11/12 03:14:50;;;;;;;7.17;6.57;;;;;;;6.88;100.00;101888.38;5062062;28;20390;-76
2022/11/12 03:17:15;;;;;;;6.77;6.17;;;;;;;6.90;100.00;101891.84;5063773;28;20188;-75
2022/11/12 03:19:40;;;;;;;6.63;6.03;;;;;;;6.90;100.00;101909.00;5072159;28;20215;-74
2022/11/12 03:22:06;;;;;;;6.83;6.23;;;;;;;6.90;100.00;101902.16;5077096;28;20219;-74
2022/11/12 03:24:31;;;;;;;6.83;6.23;;;;;;;6.91;100.00;101896.19;5070906;28;20215;-74
2022/11/12 03:26:57;;;;;;;6.33;5.83;;;;;;;6.92;100.00;101900.50;5062214;28;20300;-76
2022/11/12 03:29:22;;;;;;;7.07;6.47;;;;;;;6.91;100.00;101900.47;5060445;28;20675;-76
2022/11/12 03:31:48;;;;;;;7.10;6.50;;;;;;;6.90;100.00;101898.72;5058580;28;20214;-75
2022/11/12 03:34:13;;;;;;;7.23;6.63;;;;;;;6.89;100.00;101897.81;5055610;28;20182;-74
2022/11/12 03:36:38;;;;;;;7.23;6.57;;;;;;;6.89;100.00;101891.81;5068317;28;20186;-79
2022/11/12 03:39:04;;;;;;;6.27;5.77;;;;;;;6.88;100.00;101893.53;5074215;28;20738;-75
2022/11/12 03:41:29;;;;;;;6.73;6.23;;;;;;;6.88;100.00;101897.78;5072666;28;20293;-75
2022/11/12 03:43:54;;;;;;;7.10;6.50;;;;;;;6.88;100.00;101896.09;5063520;28;20635;-76
2022/11/12 03:46:20;;;;;;;6.97;6.37;;;;;;;6.89;100.00;101895.25;5064302;28;20848;-75
2022/11/12 03:48:45;;;;;;;7.40;6.70;;;;;;;6.90;100.00;101893.56;5056108;28;20349;-78
2022/11/12 03:51:15;;;;;;;7.17;6.57;;;;;;;6.86;100.00;101893.47;5064436;28;20243;-75
2022/11/12 03:53:40;;;;;;;6.97;6.37;;;;;;;6.83;100.00;101901.09;5059505;28;20268;-75
2022/11/12 03:56:05;;;;;;;6.80;6.20;;;;;;;6.83;100.00;101892.50;5056338;28;20338;-76
2022/11/12 03:58:31;;;;;;;6.60;6.10;;;;;;;6.82;100.00;101895.91;5059340;28;20184;-74
2022/11/12 04:00:56;;;;;;;5.77;5.27;;;;;;;6.80;100.00;101893.28;5063239;28;20278;-74
2022/11/12 04:03:21;;;;;;;5.87;5.37;;;;;;;6.80;100.00;101897.53;5059440;28;20268;-75
2022/11/12 04:08:37;;;;;;;6.57;5.97;;;;;;;6.77;100.00;101892.28;5067257;28;20743;-74
2022/11/12 04:11:13;;;;;;;6.37;5.87;;;;;;;6.76;100.00;101888.84;5069439;28;20225;-77
2022/11/12 04:13:40;;;;;;;6.57;5.97;;;;;;;6.74;100.00;101885.34;5059850;28;20189;-77
2022/11/12 04:22:05;;;;;;;6.60;6.07;;;;;;;6.65;100.00;101882.50;5068835;28;20611;-77
2022/11/12 04:27:29;;;;;;;6.13;5.40;;;;;;;6.58;100.00;101877.97;5068779;28;20207;-77
2022/11/12 04:32:45;;;;;;;6.17;5.67;;;;;;;6.52;100.00;101887.22;5067495;28;20212;-74
2022/11/12 04:35:10;;;;;;;6.50;6.00;;;;;;;6.49;100.00;101883.66;5062447;28;20182;-74
2022/11/12 04:37:45;;;;;;;7.10;6.43;;;;;;;6.46;100.00;101886.13;5074050;28;20195;-75
2022/11/12 04:45:43;;;;;;;6.40;5.80;;;;;;;6.40;100.00;101882.53;5072706;28;20200;-74
2022/11/12 04:48:09;;;;;;;6.77;6.27;;;;;;;6.39;100.00;101877.34;5070853;28;20214;-75
2022/11/12 04:50:35;;;;;;;6.77;6.17;;;;;;;6.34;100.00;101874.59;5065127;28;20205;-77
2022/11/12 04:53:01;;;;;;;6.97;6.27;;;;;;;6.34;100.00;101884.03;5072596;28;20211;-74
2022/11/12 04:55:26;;;;;;;6.93;6.33;;;;;;;6.33;100.00;101882.28;5052345;28;20199;-76
2022/11/12 04:57:53;;;;;;;6.70;6.10;;;;;;;6.34;100.00;101881.47;5057914;28;20230;-74
2022/11/12 05:00:18;;;;;;;6.47;5.87;;;;;;;6.35;100.00;101884.06;5070320;28;20649;-75
2022/11/12 05:02:44;;;;;;;7.13;6.53;;;;;;;6.36;100.00;101878.13;5067058;28;20193;-74
2022/11/12 05:05:09;;;;;;;6.73;6.13;;;;;;;6.35;100.00;101881.50;5059532;28;20240;-74
2022/11/12 05:07:34;;;;;;;6.33;5.70;;;;;;;6.35;100.00;101878.06;5060539;28;20260;-75
2022/11/12 05:10:00;;;;;;;5.70;5.20;;;;;;;6.35;100.00;101875.50;5069319;28;20193;-74
2022/11/12 05:12:26;;;;;;;5.97;5.47;;;;;;;6.35;100.00;101875.50;5065502;28;20212;-74
2022/11/12 05:14:51;;;;;;;5.80;5.27;;;;;;;6.33;100.00;101880.56;5066681;28;20249;-75
2022/11/12 05:17:16;;;;;;;5.37;4.87;;;;;;;6.34;100.00;101881.47;5059314;28;20199;-75
2022/11/12 05:19:42;;;;;;;5.40;4.90;;;;;;;6.34;100.00;101878.91;5062434;28;20190;-76
2022/11/12 05:22:09;;;;;;;5.57;5.00;;;;;;;6.34;100.00;101869.47;5063454;28;20208;-76
2022/11/12 05:24:37;;;;;;;4.80;4.40;;;;;;;6.35;100.00;101871.22;5056890;28;20649;-73
2022/11/12 05:27:04;;;;;;;4.30;4.00;;;;;;;6.36;100.00;101867.81;5064891;28;20635;-73
2022/11/12 05:29:30;;;;;;;4.73;4.33;;;;;;;6.35;100.00;101865.22;5067879;28;20228;-75
2022/11/12 05:31:56;;;;;;;5.43;4.93;;;;;;;6.33;100.00;101872.00;5066272;28;20208;-73
2022/11/12 05:34:21;;;;;;;5.23;4.73;;;;;;;6.31;100.00;101869.34;5065429;28;20547;-74
2022/11/12 05:36:46;;;;;;;7.67;4.40;;;;;;;6.29;100.00;101871.00;5068082;28;20186;-74
2022/11/12 05:39:12;;;;;;;5.67;5.17;;;;;;;6.27;100.00;101866.63;5069451;28;20201;-75
2022/11/12 05:41:37;;;;;;;4.83;4.43;;;;;;;6.29;100.00;101878.72;5061526;28;20212;-75
2022/11/12 05:44:03;;;;;;;5.17;4.67;;;;;;;6.32;100.00;101872.81;5075652;28;20251;-74
2022/11/12 05:46:28;;;;;;;4.70;4.30;;;;;;;6.32;100.00;101872.81;5067030;28;20189;-77
2022/11/12 05:48:53;;;;;;;5.53;4.90;;;;;;;6.33;100.00;101885.72;5058313;28;20213;-74
2022/11/12 05:51:19;;;;;;;5.07;4.57;;;;;;;6.32;100.00;101883.97;5067844;28;20292;-75
2022/11/12 05:53:44;;;;;;;5.40;4.90;;;;;;;6.34;100.00;101890.03;5061692;28;20200;-74
2022/11/12 05:56:11;;;;;;;5.80;5.23;;;;;;;6.36;100.00;101882.38;5066520;28;20291;-74
2022/11/12 05:58:36;;;;;;;5.50;5.00;;;;;;;6.35;100.00;101889.22;5059607;28;20187;-74
2022/11/12 06:01:01;;;;;;;6.90;6.30;;;;;;;6.33;100.00;101885.72;5060772;28;20209;-74
2022/11/12 06:03:27;;;;;;;6.03;5.53;;;;;;;6.28;100.00;101887.25;5062438;28;20228;-77
2022/11/12 06:05:53;;;;;;;6.00;5.50;;;;;;;6.24;100.00;101890.56;5062920;28;20247;-75
2022/11/12 06:08:18;;;;;;;5.97;5.47;;;;;;;6.19;100.00;101892.06;5055837;28;20211;-74
2022/11/12 06:10:51;;;;;;;5.43;5.00;;;;;;;6.17;100.00;101896.28;5056409;28;20208;-74
2022/11/12 06:13:17;;;;;;;5.40;4.90;;;;;;;6.15;100.00;101898.81;5064262;28;20193;-74
2022/11/12 06:15:43;;;;;;;4.40;4.00;;;;;;;6.11;100.00;101894.38;5060322;28;20333;-74
2022/11/12 06:18:08;;;;;;;4.00;3.70;;;;;;;6.07;100.00;101898.53;5063767;28;21063;-77
2022/11/12 06:20:34;;;;;;;5.17;4.60;;;;;;;6.05;100.00;101897.59;5065265;28;20235;-74
2022/11/12 06:22:59;;;;;;;4.77;4.37;;;;;;;6.04;100.00;101898.44;5067685;28;20184;-73
2022/11/12 06:25:25;;;;;;;4.80;4.40;;;;;;;6.01;100.00;101900.88;5068512;28;20300;-74
2022/11/12 06:27:50;;;;;;;4.20;3.83;;;;;;;5.98;100.00;101900.72;5075858;28;20207;-74
2022/11/12 06:30:16;;;;;;;4.80;4.40;;;;;;;5.98;100.00;101907.59;5065312;28;20188;-74
2022/11/12 06:32:44;;;;;;;4.50;4.10;;;;;;;5.94;100.00;101911.75;5062663;28;20187;-74
2022/11/12 06:35:09;;;;;;;4.90;4.40;;;;;;;5.90;100.00;101915.00;5074984;28;20196;-73
2022/11/12 06:37:35;;;;;;;4.00;3.70;;;;;;;5.90;100.00;101920.16;5073475;28;20183;-74
2022/11/12 06:40:00;;;;;;;3.87;3.57;;;;;;;5.89;100.00;101920.97;5063049;28;20242;-75
2022/11/12 06:42:25;;;;;;;4.27;3.87;;;;;;;5.87;100.00;101920.94;5062440;28;20245;-74
2022/11/12 06:44:51;;;;;;;4.30;3.90;;;;;;;5.88;100.00;101924.34;5062153;28;20265;-75
2022/11/12 06:47:16;;;;;;;3.77;3.47;;;;;;;5.87;100.00;101922.59;5057082;28;20207;-74
2022/11/12 06:49:41;;;;;;;3.70;3.40;;;;;;;5.88;100.00;101927.81;5064204;28;20200;-75
2022/11/12 06:52:07;;;;;;;3.87;3.47;;;;;;;5.87;100.00;101931.19;5069831;28;20926;-78
2022/11/12 06:54:32;;;;;;;3.63;3.33;;;;;;;5.84;100.00;101930.19;5064664;28;20619;-75
2022/11/12 06:56:58;;;;;;;4.10;3.80;;;;;;;5.83;100.00;101931.00;5065616;28;20197;-74
2022/11/12 06:59:23;;;;;;;4.10;3.70;;;;;;;5.79;100.00;101928.34;5068068;28;20217;-75
2022/11/12 07:01:48;;;;;;;4.23;3.90;;;;;;;5.82;100.00;101929.28;5064463;28;20781;-74
2022/11/12 07:04:13;;;;;;;4.43;4.03;;;;;;;5.83;100.00;101926.75;5074888;28;20724;-77
2022/11/12 07:06:39;;;;;;;4.70;3.90;;;;;;;5.84;100.00;101923.38;5057431;28;20192;-73
2022/11/12 07:09:05;;;;;;;4.20;3.90;;;;;;;5.87;100.00;101927.75;5065159;28;20659;-75
2022/11/12 07:11:30;;;;;;;3.47;3.20;;;;;;;5.89;100.00;101927.00;5064444;28;20201;-74
2022/11/12 07:13:56;;;;;;;3.60;3.30;;;;;;;5.93;100.00;101931.41;5065663;28;20181;-77
2022/11/12 07:16:21;;;;;;;3.23;2.97;;;;;;;5.97;100.00;101927.28;5065622;28;20183;-73
2022/11/12 07:18:48;;;;;;;3.17;2.97;;;;;;;5.98;100.00;101915.28;5056737;28;20271;-76
2022/11/12 07:21:18;;;;;;;3.40;3.10;;;;;;;5.99;100.00;101914.47;5060699;28;20212;-75
2022/11/12 07:23:44;;;;;;;2.90;2.70;;;;;;;5.97;100.00;101922.13;5056222;28;20185;-74
2022/11/12 07:26:20;;;;;;;3.40;3.07;;;;;;;5.99;100.00;101910.19;5063605;28;20727;-74
2022/11/12 07:28:47;;;;;;;3.33;3.13;;;;;;;5.97;100.00;101917.00;5064544;28;20725;-74
2022/11/12 07:31:14;;;;;;;3.30;3.07;;;;;;;5.95;100.00;101918.63;5074133;28;20204;-73
2022/11/12 07:33:40;;;;;;;3.40;3.20;;;;;;;5.97;100.00;101910.97;5069980;28;20180;-74
2022/11/12 07:36:11;;;;;;;3.23;3.03;;;;;;;5.99;100.00;101911.91;5053130;28;20202;-73
2022/11/12 07:38:39;;;;;;;3.43;3.20;;;;;;;6.00;100.00;101906.84;5064994;28;20196;-75
2022/11/12 07:41:10;;;;;;;3.20;3.00;;;;;;;6.03;100.00;101903.53;5060298;28;20225;-78
2022/11/12 07:43:36;;;;;;;3.80;3.60;;;;;;;6.05;100.00;101900.19;5067884;28;20185;-76
2022/11/12 07:46:09;;;;;;;3.37;3.07;;;;;;;6.08;100.00;101915.72;5069340;28;20198;-76
2022/11/12 07:48:34;;;;;;;3.67;3.37;;;;;;;6.17;100.00;101912.59;5069185;28;20738;-75
2022/11/12 07:51:05;;;;;;;3.80;3.50;;;;;;;6.27;100.00;101902.63;5059521;28;20222;-78
2022/11/12 07:53:30;;;;;;;3.53;3.23;;;;;;;6.32;100.00;101904.53;5068764;28;20280;-75
2022/11/12 07:55:58;;;;;;;3.30;3.10;;;;;;;6.41;100.00;101906.56;5062957;28;20293;-78
2022/11/12 07:58:24;;;;;;;4.30;3.37;;;;;;;6.51;100.00;101907.75;5058147;28;20258;-75
2022/11/12 08:00:51;;;;;;;3.73;3.43;;;;;;;6.60;100.00;101899.47;5068424;28;20844;-74
2022/11/12 08:03:17;;;;;;;3.57;3.37;;;;;;;6.68;100.00;101898.91;5063659;28;20223;-75
2022/11/12 08:05:42;;;;;;;4.20;3.90;;;;;;;6.75;100.00;101897.41;5059033;28;20590;-74
2022/11/12 08:08:08;;;;;;;4.23;3.83;;;;;;;6.83;100.00;101900.22;5063778;28;20262;-74
2022/11/12 08:10:33;;;;;;;4.13;3.83;;;;;;;6.92;100.00;101909.94;5067693;28;20215;-75
2022/11/12 08:12:58;;;;;;;4.03;3.73;;;;;;;6.96;100.00;101915.22;5069303;28;20180;-76
2022/11/12 08:15:24;;;;;;;3.67;3.43;;;;;;;6.97;100.00;101914.41;5075636;28;20177;-75
2022/11/12 08:17:49;;;;;;;3.83;3.53;;;;;;;7.00;100.00;101917.09;5060366;28;20204;-75
2022/11/12 08:20:14;;;;;;;3.27;3.07;;;;;;;7.02;100.00;101917.13;5062673;28;20541;-75
2022/11/12 08:22:40;;;;;;;3.97;3.67;;;;;;;7.02;100.00;101909.41;5057103;28;20219;-75
2022/11/12 08:25:06;;;;;;;3.93;3.63;;;;;;;7.05;100.00;101914.66;5061189;28;20234;-75
2022/11/12 08:27:32;;;;;;;3.63;3.43;;;;;;;7.07;100.00;101920.72;5064032;28;20224;-74
2022/11/12 08:29:57;;;;;;;4.67;4.37;;;;;;;7.11;100.00;101927.69;5067292;28;20181;-75
2022/11/12 08:32:23;;;;;;;4.90;4.60;;;;;;;7.14;100.00;101920.09;5064585;28;20285;-74
2022/11/12 08:34:49;;;;;;;4.50;4.20;;;;;;;7.20;100.00;101924.53;5067870;28;20184;-75
2022/11/12 08:37:14;;;;;;;5.83;5.43;;;;;;;7.22;100.00;101912.59;5060763;28;20340;-74
2022/11/12 08:39:40;;;;;;;5.87;5.47;;;;;;;7.26;100.00;101923.91;5056849;28;20273;-75
2022/11/12 08:42:05;;;;;;;6.30;5.80;;;;;;;7.28;100.00;101919.63;5061229;28;20205;-73
2022/11/12 08:44:31;;;;;;;5.37;4.87;;;;;;;7.31;100.00;101933.50;5057734;28;20187;-73
2022/11/12 08:46:56;;;;;;;4.93;4.53;;;;;;;7.32;100.00;101926.63;5060840;28;20253;-75
2022/11/12 08:49:21;;;;;;;5.53;5.13;;;;;;;7.34;100.00;101930.13;5058271;28;20248;-74
2022/11/12 08:51:47;;;;;;;5.90;5.50;;;;;;;7.28;100.00;101927.38;5059380;28;20711;-73
2022/11/12 08:54:12;;;;;;;5.73;5.33;;;;;;;7.21;100.00;101928.88;5067474;28;20180;-76
2022/11/12 08:56:38;;;;;;;5.57;5.17;;;;;;;7.24;100.00;101928.97;5059190;28;20195;-75
2022/11/12 08:59:04;;;;;;;5.80;5.40;;;;;;;7.26;100.00;101934.19;5065405;28;20626;-73
2022/11/12 09:01:29;;;;;;;5.20;4.80;;;;;;;7.35;100.00;101929.31;5067035;28;20217;-74
2022/11/12 09:03:55;;;;;;;5.90;5.40;;;;;;;7.44;100.00;101942.47;5052818;28;20191;-75
2022/11/12 09:06:20;;;;;;;5.63;5.23;;;;;;;7.52;100.00;101934.97;5063537;28;20185;-74
2022/11/12 09:08:45;;;;;;;6.13;5.63;;;;;;;7.60;100.00;101932.63;5060000;28;20216;-73
2022/11/12 09:11:11;;;;;;;10.53;9.70;;;;;;;7.67;100.00;101933.69;5066180;28;20604;-77
2022/11/12 09:13:36;;;;;;;10.13;9.27;;;;;;;7.70;100.00;101931.19;5066420;28;20176;-74
2022/11/12 09:16:04;;;;;;;9.73;8.97;;;;;;;7.71;100.00;101923.53;5062583;28;20185;-75
2022/11/12 09:18:31;;;;;;;8.70;8.00;;;;;;;7.71;100.00;101931.25;5064867;28;20177;-74
2022/11/12 09:21:01;;;;;;;7.13;6.63;;;;;;;7.69;100.00;101938.06;5062034;28;20252;-75
2022/11/12 09:23:27;;;;;;;6.97;6.37;;;;;;;7.69;100.00;101932.03;5061676;28;20186;-75
2022/11/12 09:25:55;;;;;;;6.27;5.73;;;;;;;7.73;100.00;101939.03;5059366;28;20664;-75
2022/11/12 09:28:21;;;;;;;7.10;6.50;;;;;;;7.75;100.00;101934.78;5059038;28;20202;-75
2022/11/12 09:30:48;;;;;;;7.47;6.87;;;;;;;7.79;100.00;101941.75;5067349;28;20258;-74
2022/11/12 09:33:15;;;;;;;7.97;7.37;;;;;;;7.82;100.00;101943.56;5067391;28;20886;-76
2022/11/12 09:35:41;;;;;;;8.03;7.43;;;;;;;7.78;100.00;101943.47;5052611;28;20665;-75
2022/11/12 09:38:07;;;;;;;7.90;7.20;;;;;;;7.77;100.00;101943.44;5054675;28;20589;-74
2022/11/12 09:40:45;;;;;;;8.00;7.40;;;;;;;7.81;100.00;101941.81;5065352;28;20205;-76
2022/11/12 09:43:18;;;;;;;7.93;7.33;;;;;;;7.84;100.00;101939.34;5059246;28;20206;-75
2022/11/12 09:45:46;;;;;;;8.83;8.13;;;;;;;7.83;100.00;101943.59;5063343;28;20284;-74
2022/11/12 09:48:17;;;;;;;9.57;8.77;;;;;;;7.86;100.00;101937.69;5060635;28;20682;-74
2022/11/12 09:50:59;;;;;;;10.27;9.37;;;;;;;7.92;100.00;101937.84;5063815;28;20223;-75
2022/11/12 09:53:46;;;;;;;10.17;9.37;;;;;;;7.98;100.00;101944.88;5072399;28;20567;-76
2022/11/12 09:56:14;;;;;;;9.57;8.77;;;;;;;8.00;100.00;101945.81;5072486;28;20190;-75
2022/11/12 09:58:39;;;;;;;10.33;9.53;;;;;;;8.03;100.00;101948.47;5064651;28;20174;-77
2022/11/12 10:01:21;;;;;;;10.80;9.90;;;;;;;8.08;100.00;101954.66;5066194;28;20222;-75
2022/11/12 10:04:15;;;;;;;11.17;10.27;;;;;;;8.11;100.00;101944.38;5056612;28;20260;-75
2022/11/12 10:07:04;;;;;;;10.33;9.40;;;;;;;8.09;100.00;101943.50;5068502;28;20229;-75
2022/11/12 10:09:45;;;;;;;9.63;8.83;;;;;;;8.06;100.00;101940.84;5064723;28;20175;-75
2022/11/12 10:12:32;;;;;;;10.60;9.70;;;;;;;8.08;100.00;101931.44;5067031;28;20202;-75
2022/11/12 10:18:49;;;;;;;9.10;8.40;;;;;;;8.14;100.00;101929.00;5058750;28;20190;-74
2022/11/12 10:21:35;;;;;;;10.27;9.43;;;;;;;8.14;100.00;101923.00;5069332;28;20207;-74
2022/11/12 10:24:01;;;;;;;13.03;11.80;;;;;;;8.16;100.00;101926.50;5067367;28;20586;-76
2022/11/12 10:26:27;;;;;;;13.03;11.73;;;;;;;8.18;100.00;101924.81;5087139;28;20181;-75
2022/11/12 10:29:11;;;;;;;12.87;11.53;;;;;;;8.19;100.00;101923.97;5081797;28;20206;-75
2022/11/12 10:31:37;;;;;;;12.20;11.10;;;;;;;8.21;100.00;101919.72;5075917;28;20292;-76
2022/11/12 10:34:20;;;;;;;12.87;11.67;;;;;;;8.22;100.00;101916.31;5089075;28;20173;-75
2022/11/12 10:36:53;;;;;;;12.47;11.47;;;;;;;8.24;100.00;101907.78;5079720;28;20259;-76
2022/11/12 10:39:40;;;;;;;11.30;10.30;;;;;;;8.28;100.00;101913.91;5074574;28;20178;-75
2022/11/12 10:42:11;;;;;;;11.83;10.83;;;;;;;8.31;100.00;101906.28;5066137;28;20210;-77
2022/11/12 10:44:42;;;;;;;12.27;11.27;;;;;;;8.38;100.00;101915.03;5069155;28;20838;-76
2022/11/12 10:47:31;;;;;;;11.03;10.13;;;;;;;8.41;100.00;101911.66;5067450;28;20312;-75
2022/11/12 10:50:09;;;;;;;11.50;10.50;;;;;;;8.39;100.00;101907.34;5057723;28;20171;-75
2022/11/12 10:52:36;;;;;;;11.90;10.80;;;;;;;8.39;100.00;101904.75;5065357;28;20445;-75
2022/11/12 10:55:23;;;;;;;11.10;10.10;;;;;;;8.41;100.00;101907.34;5063228;28;20234;-77
2022/11/12 10:58:09;;;;;;;11.40;10.40;;;;;;;8.39;100.00;101909.91;5060747;28;20662;-75
2022/11/12 11:00:37;;;;;;;10.70;9.80;;;;;;;8.39;100.00;101907.34;5054896;28;20210;-75
2022/11/12 11:03:15;;;;;;;12.00;10.93;;;;;;;8.41;100.00;101903.91;5053965;28;20188;-75
2022/11/12 11:05:59;;;;;;;11.70;10.60;;;;;;;8.42;100.00;101895.34;5055769;28;20183;-75
2022/11/12 11:08:48;;;;;;;11.83;10.77;;;;;;;8.41;100.00;101891.03;5058303;28;20213;-76
2022/11/12 11:11:30;;;;;;;12.63;11.60;;;;;;;8.41;100.00;101896.19;5058560;28;20211;-75
2022/11/12 11:14:16;;;;;;;11.57;10.57;;;;;;;8.40;100.00;101884.97;5059273;28;20190;-74
2022/11/12 11:16:52;;;;;;;12.27;11.17;;;;;;;8.44;100.00;101886.81;5064308;28;20242;-77
2022/11/12 11:19:18;;;;;;;13.33;12.10;;;;;;;8.48;100.00;101887.78;5074329;28;20189;-76
2022/11/12 11:21:47;;;;;;;12.73;11.63;;;;;;;8.51;100.00;101874.97;5069025;28;20193;-76
2022/11/12 11:24:24;;;;;;;14.07;12.77;;;;;;;8.53;100.00;101881.03;5072709;28;20181;-76
2022/11/12 11:27:08;;;;;;;14.17;12.97;;;;;;;8.52;100.00;101880.19;5064724;28;20263;-77
2022/11/12 11:29:55;;;;;;;14.57;13.17;;;;;;;8.55;100.00;101881.94;5063282;28;20662;-75
2022/11/12 11:32:45;;;;;;;14.13;12.93;;;;;;;8.53;100.00;101881.94;5065777;28;20259;-77
2022/11/12 11:35:26;;;;;;;13.23;12.13;;;;;;;8.53;100.00;101875.88;5062318;28;20189;-77
2022/11/12 11:37:54;;;;;;;13.67;12.57;;;;;;;8.52;100.00;101874.13;5066186;28;20205;-74
2022/11/12 11:40:27;;;;;;;13.10;12.00;;;;;;;8.49;100.00;101867.19;5070045;28;20193;-76
2022/11/12 11:43:38;;;;;;;13.80;12.70;;;;;;;8.48;100.00;101875.78;5073180;28;20209;-76
2022/11/12 11:46:23;;;;;;;13.83;12.63;;;;;;;8.46;100.00;101869.66;5057493;28;20309;-76
2022/11/12 11:49:12;;;;;;;16.23;14.80;;;;;;;8.41;100.00;101865.22;5058319;28;20252;-75
2022/11/12 11:52:22;;;;;;;16.10;14.70;;;;;;;8.29;100.00;101863.19;5071872;28;22171;-75